Terminal Aerodrome Forecast
Issued by NWS Bismarck, ND

Home | Current Version | Previous Version | Text Only | Print | Product List | Glossary On
Versions: 1 2 3 4 5 6 7 8 9 10 11 12 13 14 15 16 17 18 19
226
FTUS43 KBIS 031656 AAB
TAFISN
TAF AMD
KISN 031656Z 0317/0412 30013KT P6SM SCT011 BKN150
     FM032100 27010KT P6SM OVC035
     FM041100 31004KT P6SM BKN050=

USA.gov is the U.S. government's official web portal to all federal, state and local government web resources and services.